Main page
METAR-TAF:

METAR-TAF

Airports :

Istres, France

Istres-Le Tubé Air Base

latitude: 43-31N, longitude: 004-56E, elevation: 23 m

Current weather observation

The report was made 17 minutes ago, at 03:30 UTC
Wind 20 kt from the Northwest
Temperature 14°C
Humidity 58%
Pressure 1017 hPa
Visibility 10 km or more
no clouds below 1500 m and no cumulonimbus

METAR: LFMI 200330Z AUTO 32020KT CAVOK 14/06 Q1017 NOSIG

Time: 05:47 (03:47 UTC)

Forecast

The report was made 1 hour and 47 minutes ago, at 02:00 UTC
Forecast valid from 20 at 03 UTC to 21 at 03 UTC
Wind 22 kt from the North/Northwest
Visibility 10 km or more
no clouds below 1500 m and no cumulonimbus
Temporary
from 20 at 03 UTC to 20 at 04 UTC
Wind 25 kt from the North/Northwest with gusts up to 35 kt
Becoming
from 20 at 09 UTC to 20 at 13 UTC
Wind 12 kt from the North/Northwest

TAF: LFMI 200200Z 2003/2103 34022KT CAVOK TEMPO 2003/2004 33025G35KT BECMG 2009/2013 34012KT

Weather observations and forecasts of more than 4000 airports (METAR and TAF reports).

The available stations are represented by yellow and red dots on the map.

Hover mouse over dot to see the name of the station.

Then click to see weather observations and forecasts.

To change the map : click on the green buttons with a black cross to zoom in, on the green button with a dash to zoom out, or on the green arrows for adjacent maps.


METAR-TAF: